sensor_id;sensor_type;location;lat;lon;timestamp;temperature;humidity
678;DHT22;321;48.814;9.132;2023-04-16T00:01:36;9.60;99.90
678;DHT22;321;48.814;9.132;2023-04-16T00:04:01;9.60;99.90
678;DHT22;321;48.814;9.132;2023-04-16T00:06:27;9.60;99.90
678;DHT22;321;48.814;9.132;2023-04-16T00:08:53;9.50;99.90
678;DHT22;321;48.814;9.132;2023-04-16T00:11:19;9.60;99.90
678;DHT22;321;48.814;9.132;2023-04-16T00:13:44;9.60;99.90
678;DHT22;321;48.814;9.132;2023-04-16T00:16:10;9.60;99.90
678;DHT22;321;48.814;9.132;2023-04-16T00:18:35;9.70;99.90
678;DHT22;321;48.814;9.132;2023-04-16T00:21:01;9.40;99.90
678;DHT22;321;48.814;9.132;2023-04-16T00:23:26;9.50;99.90
678;DHT22;321;48.814;9.132;2023-04-16T00:25:52;9.40;99.90
678;DHT22;321;48.814;9.132;2023-04-16T00:28:24;9.50;99.90
678;DHT22;321;48.814;9.132;2023-04-16T00:30:50;9.50;99.90
678;DHT22;321;48.814;9.132;2023-04-16T00:33:16;9.50;99.90
678;DHT22;321;48.814;9.132;2023-04-16T00:35:43;9.60;99.90
678;DHT22;321;48.814;9.132;2023-04-16T00:38:09;9.70;99.90
678;DHT22;321;48.814;9.132;2023-04-16T00:40:34;9.50;99.90
678;DHT22;321;48.814;9.132;2023-04-16T00:43:00;9.50;99.90
678;DHT22;321;48.814;9.132;2023-04-16T00:45:26;9.50;99.90
678;DHT22;321;48.814;9.132;2023-04-16T00:47:51;9.60;99.90
678;DHT22;321;48.814;9.132;2023-04-16T00:50:17;9.60;99.90
678;DHT22;321;48.814;9.132;2023-04-16T00:52:47;9.50;99.90
678;DHT22;321;48.814;9.132;2023-04-16T00:55:14;9.60;99.90
678;DHT22;321;48.814;9.132;2023-04-16T00:57:40;9.70;99.90
678;DHT22;321;48.814;9.132;2023-04-16T01:00:06;9.70;99.90
678;DHT22;321;48.814;9.132;2023-04-16T01:02:32;9.70;99.90
678;DHT22;321;48.814;9.132;2023-04-16T01:04:59;9.70;99.90
678;DHT22;321;48.814;9.132;2023-04-16T01:07:25;9.80;99.90
678;DHT22;321;48.814;9.132;2023-04-16T01:09:51;9.90;99.90
678;DHT22;321;48.814;9.132;2023-04-16T01:12:16;9.90;99.90
678;DHT22;321;48.814;9.132;2023-04-16T01:14:42;9.70;99.90
678;DHT22;321;48.814;9.132;2023-04-16T01:17:07;9.70;99.90
678;DHT22;321;48.814;9.132;2023-04-16T01:19:33;9.70;99.90
678;DHT22;321;48.814;9.132;2023-04-16T01:22:03;9.70;99.90
678;DHT22;321;48.814;9.132;2023-04-16T01:24:28;9.70;99.90
678;DHT22;321;48.814;9.132;2023-04-16T01:26:54;9.60;99.90
678;DHT22;321;48.814;9.132;2023-04-16T01:29:21;9.60;99.90
678;DHT22;321;48.814;9.132;2023-04-16T01:31:47;9.50;99.90
678;DHT22;321;48.814;9.132;2023-04-16T01:34:12;9.50;99.90
678;DHT22;321;48.814;9.132;2023-04-16T01:36:38;9.70;99.90
678;DHT22;321;48.814;9.132;2023-04-16T01:39:03;9.50;99.90
678;DHT22;321;48.814;9.132;2023-04-16T01:41:30;9.50;99.90
678;DHT22;321;48.814;9.132;2023-04-16T01:43:56;9.40;99.90
678;DHT22;321;48.814;9.132;2023-04-16T01:46:30;9.40;99.90
678;DHT22;321;48.814;9.132;2023-04-16T01:49:00;9.60;99.90
678;DHT22;321;48.814;9.132;2023-04-16T01:51:26;9.60;99.90
678;DHT22;321;48.814;9.132;2023-04-16T01:53:52;9.50;99.90
678;DHT22;321;48.814;9.132;2023-04-16T01:56:18;9.60;99.90
678;DHT22;321;48.814;9.132;2023-04-16T01:58:44;9.60;99.90
678;DHT22;321;48.814;9.132;2023-04-16T02:01:10;9.50;99.90
678;DHT22;321;48.814;9.132;2023-04-16T02:03:36;9.50;99.90
678;DHT22;321;48.814;9.132;2023-04-16T02:06:02;9.50;99.90
678;DHT22;321;48.814;9.132;2023-04-16T02:08:28;9.60;99.90
678;DHT22;321;48.814;9.132;2023-04-16T02:10:54;9.50;99.90
678;DHT22;321;48.814;9.132;2023-04-16T02:13:20;9.50;99.90
678;DHT22;321;48.814;9.132;2023-04-16T02:15:47;9.60;99.90
678;DHT22;321;48.814;9.132;2023-04-16T02:18:13;9.50;99.90
678;DHT22;321;48.814;9.132;2023-04-16T02:20:42;9.40;99.90
678;DHT22;321;48.814;9.132;2023-04-16T02:23:08;9.50;99.90
678;DHT22;321;48.814;9.132;2023-04-16T02:25:38;9.60;99.90
678;DHT22;321;48.814;9.132;2023-04-16T02:28:06;9.50;99.90
678;DHT22;321;48.814;9.132;2023-04-16T02:30:32;9.50;99.90
678;DHT22;321;48.814;9.132;2023-04-16T02:32:59;9.50;99.90
678;DHT22;321;48.814;9.132;2023-04-16T02:35:26;9.40;99.90
678;DHT22;321;48.814;9.132;2023-04-16T02:37:52;9.40;99.90
678;DHT22;321;48.814;9.132;2023-04-16T02:43:36;9.40;99.90
678;DHT22;321;48.814;9.132;2023-04-16T02:46:01;9.40;99.90
678;DHT22;321;48.814;9.132;2023-04-16T02:48:27;9.30;99.90
678;DHT22;321;48.814;9.132;2023-04-16T02:50:52;9.30;99.90
678;DHT22;321;48.814;9.132;2023-04-16T02:53:18;9.30;99.90
678;DHT22;321;48.814;9.132;2023-04-16T02:55:51;9.20;99.90
678;DHT22;321;48.814;9.132;2023-04-16T02:58:18;9.30;99.90
678;DHT22;321;48.814;9.132;2023-04-16T03:00:44;9.40;99.90
678;DHT22;321;48.814;9.132;2023-04-16T03:03:09;9.20;99.90
678;DHT22;321;48.814;9.132;2023-04-16T03:05:35;9.30;99.90
678;DHT22;321;48.814;9.132;2023-04-16T03:08:00;9.30;99.90
678;DHT22;321;48.814;9.132;2023-04-16T03:10:26;9.40;99.90
678;DHT22;321;48.814;9.132;2023-04-16T03:12:51;9.40;99.90
678;DHT22;321;48.814;9.132;2023-04-16T03:18:39;9.30;99.90
678;DHT22;321;48.814;9.132;2023-04-16T03:21:05;9.30;99.90
678;DHT22;321;48.814;9.132;2023-04-16T03:23:30;9.30;99.90
678;DHT22;321;48.814;9.132;2023-04-16T03:25:56;9.20;99.90
678;DHT22;321;48.814;9.132;2023-04-16T03:28:22;9.20;99.90
678;DHT22;321;48.814;9.132;2023-04-16T03:31:15;9.20;99.90
678;DHT22;321;48.814;9.132;2023-04-16T03:33:41;9.20;99.90
678;DHT22;321;48.814;9.132;2023-04-16T03:36:07;9.00;99.90
678;DHT22;321;48.814;9.132;2023-04-16T03:38:32;9.10;99.90
678;DHT22;321;48.814;9.132;2023-04-16T03:40:58;9.10;99.90
678;DHT22;321;48.814;9.132;2023-04-16T03:43:23;9.10;99.90
678;DHT22;321;48.814;9.132;2023-04-16T03:45:49;9.10;99.90
678;DHT22;321;48.814;9.132;2023-04-16T03:48:15;9.00;99.90
678;DHT22;321;48.814;9.132;2023-04-16T03:50:44;9.00;99.90
678;DHT22;321;48.814;9.132;2023-04-16T03:53:10;9.00;99.90
678;DHT22;321;48.814;9.132;2023-04-16T03:55:35;8.90;99.90
678;DHT22;321;48.814;9.132;2023-04-16T03:58:01;9.00;99.90
678;DHT22;321;48.814;9.132;2023-04-16T04:00:28;9.00;99.90
678;DHT22;321;48.814;9.132;2023-04-16T04:02:54;9.00;99.90
678;DHT22;321;48.814;9.132;2023-04-16T04:05:20;9.10;99.90
678;DHT22;321;48.814;9.132;2023-04-16T04:07:45;9.10;99.90
678;DHT22;321;48.814;9.132;2023-04-16T04:10:11;9.10;99.90
678;DHT22;321;48.814;9.132;2023-04-16T04:15:58;9.20;99.90
678;DHT22;321;48.814;9.132;2023-04-16T04:18:24;9.10;99.90
678;DHT22;321;48.814;9.132;2023-04-16T04:20:50;9.10;99.90
678;DHT22;321;48.814;9.132;2023-04-16T04:23:16;9.30;99.90
678;DHT22;321;48.814;9.132;2023-04-16T04:25:41;9.20;99.90
678;DHT22;321;48.814;9.132;2023-04-16T04:28:07;9.10;99.90
678;DHT22;321;48.814;9.132;2023-04-16T04:30:32;9.00;99.90
678;DHT22;321;48.814;9.132;2023-04-16T04:33:00;9.00;99.90
678;DHT22;321;48.814;9.132;2023-04-16T04:35:25;9.00;99.90
678;DHT22;321;48.814;9.132;2023-04-16T04:37:51;9.00;99.90
678;DHT22;321;48.814;9.132;2023-04-16T04:40:16;9.20;99.90
678;DHT22;321;48.814;9.132;2023-04-16T04:42:42;9.30;99.90
678;DHT22;321;48.814;9.132;2023-04-16T04:45:08;9.30;99.90
678;DHT22;321;48.814;9.132;2023-04-16T04:47:34;9.30;99.90
678;DHT22;321;48.814;9.132;2023-04-16T04:49:59;9.20;99.90
678;DHT22;321;48.814;9.132;2023-04-16T04:52:25;9.40;99.90
678;DHT22;321;48.814;9.132;2023-04-16T04:54:53;9.40;99.90
678;DHT22;321;48.814;9.132;2023-04-16T04:57:19;9.30;99.90
678;DHT22;321;48.814;9.132;2023-04-16T04:59:45;9.30;99.90
678;DHT22;321;48.814;9.132;2023-04-16T05:02:10;9.30;99.90
678;DHT22;321;48.814;9.132;2023-04-16T05:04:36;9.10;99.90
678;DHT22;321;48.814;9.132;2023-04-16T05:07:01;9.10;99.90
678;DHT22;321;48.814;9.132;2023-04-16T05:09:27;9.10;99.90
678;DHT22;321;48.814;9.132;2023-04-16T05:11:52;9.10;99.90
678;DHT22;321;48.814;9.132;2023-04-16T05:14:18;9.20;99.90
678;DHT22;321;48.814;9.132;2023-04-16T05:16:44;9.20;99.90
678;DHT22;321;48.814;9.132;2023-04-16T05:19:09;9.20;99.90
678;DHT22;321;48.814;9.132;2023-04-16T05:21:35;9.30;99.90
678;DHT22;321;48.814;9.132;2023-04-16T05:24:00;9.40;99.90
678;DHT22;321;48.814;9.132;2023-04-16T05:26:26;9.40;99.90
678;DHT22;321;48.814;9.132;2023-04-16T05:28:51;9.30;99.90
678;DHT22;321;48.814;9.132;2023-04-16T05:31:17;9.30;99.90
678;DHT22;321;48.814;9.132;2023-04-16T05:33:42;9.40;99.90
678;DHT22;321;48.814;9.132;2023-04-16T05:36:08;9.40;99.90
678;DHT22;321;48.814;9.132;2023-04-16T05:42:09;9.30;99.90
678;DHT22;321;48.814;9.132;2023-04-16T05:44:35;9.30;99.90
678;DHT22;321;48.814;9.132;2023-04-16T05:47:00;9.30;99.90
678;DHT22;321;48.814;9.132;2023-04-16T05:49:26;9.20;99.90
678;DHT22;321;48.814;9.132;2023-04-16T05:51:51;9.20;99.90
678;DHT22;321;48.814;9.132;2023-04-16T05:54:17;9.20;99.90
678;DHT22;321;48.814;9.132;2023-04-16T05:56:42;9.20;99.90
678;DHT22;321;48.814;9.132;2023-04-16T05:59:08;9.30;99.90
678;DHT22;321;48.814;9.132;2023-04-16T06:01:33;9.50;99.90
678;DHT22;321;48.814;9.132;2023-04-16T06:03:59;9.50;99.90
678;DHT22;321;48.814;9.132;2023-04-16T06:06:24;9.60;99.90
678;DHT22;321;48.814;9.132;2023-04-16T06:08:51;9.60;99.90
678;DHT22;321;48.814;9.132;2023-04-16T06:11:17;9.50;99.90
678;DHT22;321;48.814;9.132;2023-04-16T06:13:43;9.40;99.90
678;DHT22;321;48.814;9.132;2023-04-16T06:16:09;9.30;99.90
678;DHT22;321;48.814;9.132;2023-04-16T06:18:34;9.30;99.90
678;DHT22;321;48.814;9.132;2023-04-16T06:21:00;9.30;99.90
678;DHT22;321;48.814;9.132;2023-04-16T06:23:26;9.30;99.90
678;DHT22;321;48.814;9.132;2023-04-16T06:25:51;9.30;99.90
678;DHT22;321;48.814;9.132;2023-04-16T06:28:17;9.30;99.90
678;DHT22;321;48.814;9.132;2023-04-16T06:30:42;9.30;99.90
678;DHT22;321;48.814;9.132;2023-04-16T06:33:08;9.40;99.90
678;DHT22;321;48.814;9.132;2023-04-16T06:35:33;9.40;99.90
678;DHT22;321;48.814;9.132;2023-04-16T06:37:59;9.30;99.90
678;DHT22;321;48.814;9.132;2023-04-16T06:40:24;9.30;99.90
678;DHT22;321;48.814;9.132;2023-04-16T06:42:50;9.30;99.90
678;DHT22;321;48.814;9.132;2023-04-16T06:45:16;9.20;99.90
678;DHT22;321;48.814;9.132;2023-04-16T06:47:41;9.20;99.90
678;DHT22;321;48.814;9.132;2023-04-16T06:50:07;9.20;99.90
678;DHT22;321;48.814;9.132;2023-04-16T06:52:33;9.30;99.90
678;DHT22;321;48.814;9.132;2023-04-16T06:54:58;9.30;99.90
678;DHT22;321;48.814;9.132;2023-04-16T06:57:24;9.40;99.90
678;DHT22;321;48.814;9.132;2023-04-16T06:59:49;9.40;99.90
678;DHT22;321;48.814;9.132;2023-04-16T07:02:15;9.20;99.90
678;DHT22;321;48.814;9.132;2023-04-16T07:04:41;9.20;99.90
678;DHT22;321;48.814;9.132;2023-04-16T07:07:07;9.40;99.90
678;DHT22;321;48.814;9.132;2023-04-16T07:09:32;9.30;99.90
678;DHT22;321;48.814;9.132;2023-04-16T07:11:58;9.20;99.90
678;DHT22;321;48.814;9.132;2023-04-16T07:14:23;9.30;99.90
678;DHT22;321;48.814;9.132;2023-04-16T07:16:49;9.20;99.90
678;DHT22;321;48.814;9.132;2023-04-16T07:19:15;9.20;99.90
678;DHT22;321;48.814;9.132;2023-04-16T07:21:40;9.40;99.90
678;DHT22;321;48.814;9.132;2023-04-16T07:24:09;9.30;99.90
678;DHT22;321;48.814;9.132;2023-04-16T07:26:36;9.50;99.90
678;DHT22;321;48.814;9.132;2023-04-16T07:29:01;9.70;99.90
678;DHT22;321;48.814;9.132;2023-04-16T07:31:27;9.80;99.90
678;DHT22;321;48.814;9.132;2023-04-16T07:33:53;9.80;99.90
678;DHT22;321;48.814;9.132;2023-04-16T07:36:19;9.80;99.90
678;DHT22;321;48.814;9.132;2023-04-16T07:38:45;9.50;99.90
678;DHT22;321;48.814;9.132;2023-04-16T07:41:11;9.50;99.90
678;DHT22;321;48.814;9.132;2023-04-16T07:43:37;9.60;99.90
678;DHT22;321;48.814;9.132;2023-04-16T07:46:02;9.50;99.90
678;DHT22;321;48.814;9.132;2023-04-16T07:48:28;9.60;99.90
678;DHT22;321;48.814;9.132;2023-04-16T07:50:54;9.60;99.90
678;DHT22;321;48.814;9.132;2023-04-16T07:53:19;9.50;99.90
678;DHT22;321;48.814;9.132;2023-04-16T07:55:45;9.60;99.90
678;DHT22;321;48.814;9.132;2023-04-16T07:58:11;9.60;99.90
678;DHT22;321;48.814;9.132;2023-04-16T08:00:36;9.80;99.90
678;DHT22;321;48.814;9.132;2023-04-16T08:03:02;9.90;99.90
678;DHT22;321;48.814;9.132;2023-04-16T08:05:28;9.80;99.90
678;DHT22;321;48.814;9.132;2023-04-16T08:07:53;9.90;99.90
678;DHT22;321;48.814;9.132;2023-04-16T08:10:19;10.00;99.90
678;DHT22;321;48.814;9.132;2023-04-16T08:12:45;9.90;99.90
678;DHT22;321;48.814;9.132;2023-04-16T08:15:10;10.00;99.90
678;DHT22;321;48.814;9.132;2023-04-16T08:17:36;9.80;99.90
678;DHT22;321;48.814;9.132;2023-04-16T08:20:02;9.90;99.90
678;DHT22;321;48.814;9.132;2023-04-16T08:22:29;9.80;99.90
678;DHT22;321;48.814;9.132;2023-04-16T08:24:55;9.80;99.90
678;DHT22;321;48.814;9.132;2023-04-16T08:27:20;10.00;99.90
678;DHT22;321;48.814;9.132;2023-04-16T08:29:46;10.00;99.90
678;DHT22;321;48.814;9.132;2023-04-16T08:32:12;10.00;99.90
678;DHT22;321;48.814;9.132;2023-04-16T08:34:38;10.00;99.90
678;DHT22;321;48.814;9.132;2023-04-16T08:37:03;9.80;99.90
678;DHT22;321;48.814;9.132;2023-04-16T08:39:29;9.90;99.90
678;DHT22;321;48.814;9.132;2023-04-16T08:41:56;10.10;99.90
678;DHT22;321;48.814;9.132;2023-04-16T08:44:27;10.10;99.90
678;DHT22;321;48.814;9.132;2023-04-16T08:46:55;10.20;99.90
678;DHT22;321;48.814;9.132;2023-04-16T08:49:26;10.20;99.90
678;DHT22;321;48.814;9.132;2023-04-16T08:51:54;10.40;99.90
678;DHT22;321;48.814;9.132;2023-04-16T08:56:57;10.40;99.90
678;DHT22;321;48.814;9.132;2023-04-16T08:59:24;10.40;99.90
678;DHT22;321;48.814;9.132;2023-04-16T09:01:49;10.40;99.90
678;DHT22;321;48.814;9.132;2023-04-16T09:04:17;10.40;99.90
678;DHT22;321;48.814;9.132;2023-04-16T09:06:43;10.30;99.90
678;DHT22;321;48.814;9.132;2023-04-16T09:09:10;10.30;99.90
678;DHT22;321;48.814;9.132;2023-04-16T09:11:36;10.40;99.90
678;DHT22;321;48.814;9.132;2023-04-16T09:14:04;10.60;99.90
678;DHT22;321;48.814;9.132;2023-04-16T09:16:33;10.70;99.90
678;DHT22;321;48.814;9.132;2023-04-16T09:18:59;10.80;99.90
678;DHT22;321;48.814;9.132;2023-04-16T09:21:25;10.60;99.90
678;DHT22;321;48.814;9.132;2023-04-16T09:23:52;10.60;99.90
678;DHT22;321;48.814;9.132;2023-04-16T09:26:19;10.70;99.90
678;DHT22;321;48.814;9.132;2023-04-16T09:28:47;10.70;99.90
678;DHT22;321;48.814;9.132;2023-04-16T09:31:14;10.80;99.90
678;DHT22;321;48.814;9.132;2023-04-16T09:33:41;10.90;99.90
678;DHT22;321;48.814;9.132;2023-04-16T09:36:07;11.10;99.90
678;DHT22;321;48.814;9.132;2023-04-16T09:38:50;11.30;99.90
678;DHT22;321;48.814;9.132;2023-04-16T09:41:16;11.30;99.90
678;DHT22;321;48.814;9.132;2023-04-16T09:43:55;11.20;99.90
678;DHT22;321;48.814;9.132;2023-04-16T09:46:22;11.20;99.90
678;DHT22;321;48.814;9.132;2023-04-16T09:48:48;11.30;99.90
678;DHT22;321;48.814;9.132;2023-04-16T09:51:14;11.30;99.90
678;DHT22;321;48.814;9.132;2023-04-16T09:53:39;11.30;99.90
678;DHT22;321;48.814;9.132;2023-04-16T09:56:05;11.20;99.90
678;DHT22;321;48.814;9.132;2023-04-16T09:58:31;11.10;99.90
678;DHT22;321;48.814;9.132;2023-04-16T10:01:01;10.90;99.90
678;DHT22;321;48.814;9.132;2023-04-16T10:03:30;11.00;99.90
678;DHT22;321;48.814;9.132;2023-04-16T10:05:59;10.80;99.90
678;DHT22;321;48.814;9.132;2023-04-16T10:08:27;10.80;99.90
678;DHT22;321;48.814;9.132;2023-04-16T10:10:53;11.00;99.90
678;DHT22;321;48.814;9.132;2023-04-16T10:13:20;11.10;99.90
678;DHT22;321;48.814;9.132;2023-04-16T10:15:45;11.00;99.90
678;DHT22;321;48.814;9.132;2023-04-16T10:18:13;10.90;99.90
678;DHT22;321;48.814;9.132;2023-04-16T10:20:39;10.80;99.90
678;DHT22;321;48.814;9.132;2023-04-16T10:23:05;11.00;99.90
678;DHT22;321;48.814;9.132;2023-04-16T10:25:31;11.00;99.90
678;DHT22;321;48.814;9.132;2023-04-16T10:27:57;11.10;99.90
678;DHT22;321;48.814;9.132;2023-04-16T10:30:24;11.10;99.90
678;DHT22;321;48.814;9.132;2023-04-16T10:32:51;11.00;99.90
678;DHT22;321;48.814;9.132;2023-04-16T10:35:20;11.00;99.90
678;DHT22;321;48.814;9.132;2023-04-16T10:37:46;11.10;99.90
678;DHT22;321;48.814;9.132;2023-04-16T10:40:23;11.20;99.90
678;DHT22;321;48.814;9.132;2023-04-16T10:42:58;11.30;99.90
678;DHT22;321;48.814;9.132;2023-04-16T10:45:31;11.20;99.90
678;DHT22;321;48.814;9.132;2023-04-16T10:48:05;11.20;99.90
678;DHT22;321;48.814;9.132;2023-04-16T10:50:37;11.10;99.90
678;DHT22;321;48.814;9.132;2023-04-16T10:53:28;11.20;99.90
678;DHT22;321;48.814;9.132;2023-04-16T10:56:09;11.20;99.90
678;DHT22;321;48.814;9.132;2023-04-16T10:58:36;11.10;99.90
678;DHT22;321;48.814;9.132;2023-04-16T11:01:15;11.10;99.90
678;DHT22;321;48.814;9.132;2023-04-16T11:03:47;11.00;99.90
678;DHT22;321;48.814;9.132;2023-04-16T11:06:22;11.00;99.90
678;DHT22;321;48.814;9.132;2023-04-16T11:08:50;11.10;99.90
678;DHT22;321;48.814;9.132;2023-04-16T11:11:17;11.10;99.90
678;DHT22;321;48.814;9.132;2023-04-16T11:13:43;11.10;99.90
678;DHT22;321;48.814;9.132;2023-04-16T11:16:13;11.20;99.90
678;DHT22;321;48.814;9.132;2023-04-16T11:18:39;11.30;99.90
678;DHT22;321;48.814;9.132;2023-04-16T11:21:15;11.20;99.90
678;DHT22;321;48.814;9.132;2023-04-16T11:23:48;11.00;99.90
678;DHT22;321;48.814;9.132;2023-04-16T11:26:28;11.00;99.90
678;DHT22;321;48.814;9.132;2023-04-16T11:28:55;11.00;99.90
678;DHT22;321;48.814;9.132;2023-04-16T11:31:22;10.80;99.90
678;DHT22;321;48.814;9.132;2023-04-16T11:33:48;10.80;99.90
678;DHT22;321;48.814;9.132;2023-04-16T11:36:14;10.90;99.90
678;DHT22;321;48.814;9.132;2023-04-16T11:38:40;10.90;99.90
678;DHT22;321;48.814;9.132;2023-04-16T11:41:07;10.80;99.90
678;DHT22;321;48.814;9.132;2023-04-16T11:43:33;10.70;99.90
678;DHT22;321;48.814;9.132;2023-04-16T11:46:01;10.60;99.90
678;DHT22;321;48.814;9.132;2023-04-16T11:48:50;10.70;99.90
678;DHT22;321;48.814;9.132;2023-04-16T11:51:16;10.90;99.90
678;DHT22;321;48.814;9.132;2023-04-16T11:53:52;10.60;99.90
678;DHT22;321;48.814;9.132;2023-04-16T11:56:28;10.60;99.90
678;DHT22;321;48.814;9.132;2023-04-16T11:59:16;10.80;99.90
678;DHT22;321;48.814;9.132;2023-04-16T12:01:46;10.90;99.90
678;DHT22;321;48.814;9.132;2023-04-16T12:04:17;10.90;99.90
678;DHT22;321;48.814;9.132;2023-04-16T12:07:12;11.00;99.90
678;DHT22;321;48.814;9.132;2023-04-16T12:09:39;11.00;99.90
678;DHT22;321;48.814;9.132;2023-04-16T12:12:23;10.90;99.90
678;DHT22;321;48.814;9.132;2023-04-16T12:14:50;11.00;99.90
678;DHT22;321;48.814;9.132;2023-04-16T12:17:19;11.00;99.90
678;DHT22;321;48.814;9.132;2023-04-16T12:19:55;10.90;99.90
678;DHT22;321;48.814;9.132;2023-04-16T12:22:34;10.90;99.90
678;DHT22;321;48.814;9.132;2023-04-16T12:25:02;10.70;99.90
678;DHT22;321;48.814;9.132;2023-04-16T12:27:42;10.80;99.90
678;DHT22;321;48.814;9.132;2023-04-16T12:30:10;10.80;99.90
678;DHT22;321;48.814;9.132;2023-04-16T12:32:36;10.70;99.90
678;DHT22;321;48.814;9.132;2023-04-16T12:35:02;10.60;99.90
678;DHT22;321;48.814;9.132;2023-04-16T12:37:27;10.50;99.90
678;DHT22;321;48.814;9.132;2023-04-16T12:39:53;10.70;99.90
678;DHT22;321;48.814;9.132;2023-04-16T12:42:19;10.70;99.90
678;DHT22;321;48.814;9.132;2023-04-16T12:44:45;10.70;99.90
678;DHT22;321;48.814;9.132;2023-04-16T12:47:11;10.90;99.90
678;DHT22;321;48.814;9.132;2023-04-16T12:49:37;10.80;99.90
678;DHT22;321;48.814;9.132;2023-04-16T12:52:02;10.80;99.90
678;DHT22;321;48.814;9.132;2023-04-16T12:54:28;10.80;99.90
678;DHT22;321;48.814;9.132;2023-04-16T12:56:55;10.90;99.90
678;DHT22;321;48.814;9.132;2023-04-16T12:59:22;10.80;99.90
678;DHT22;321;48.814;9.132;2023-04-16T13:01:47;10.70;99.90
678;DHT22;321;48.814;9.132;2023-04-16T13:04:13;10.80;99.90
678;DHT22;321;48.814;9.132;2023-04-16T13:06:39;10.70;99.90
678;DHT22;321;48.814;9.132;2023-04-16T13:09:05;10.80;99.90
678;DHT22;321;48.814;9.132;2023-04-16T13:11:31;10.90;99.90
678;DHT22;321;48.814;9.132;2023-04-16T13:13:57;10.90;99.90
678;DHT22;321;48.814;9.132;2023-04-16T13:16:22;11.00;99.90
678;DHT22;321;48.814;9.132;2023-04-16T13:18:48;11.00;99.90
678;DHT22;321;48.814;9.132;2023-04-16T13:21:14;11.10;99.90
678;DHT22;321;48.814;9.132;2023-04-16T13:23:40;11.20;99.90
678;DHT22;321;48.814;9.132;2023-04-16T13:26:05;11.00;99.90
678;DHT22;321;48.814;9.132;2023-04-16T13:28:31;10.90;99.90
678;DHT22;321;48.814;9.132;2023-04-16T13:30:56;10.90;99.90
678;DHT22;321;48.814;9.132;2023-04-16T13:33:22;10.90;99.90
678;DHT22;321;48.814;9.132;2023-04-16T13:35:49;11.00;99.90
678;DHT22;321;48.814;9.132;2023-04-16T13:38:15;11.00;99.90
678;DHT22;321;48.814;9.132;2023-04-16T13:40:41;11.10;99.90
678;DHT22;321;48.814;9.132;2023-04-16T13:43:06;11.10;99.90
678;DHT22;321;48.814;9.132;2023-04-16T13:45:32;11.20;99.90
678;DHT22;321;48.814;9.132;2023-04-16T13:47:58;11.30;99.90
678;DHT22;321;48.814;9.132;2023-04-16T13:50:24;11.40;99.90
678;DHT22;321;48.814;9.132;2023-04-16T13:52:50;11.30;99.90
678;DHT22;321;48.814;9.132;2023-04-16T13:55:16;11.30;99.90
678;DHT22;321;48.814;9.132;2023-04-16T13:57:46;11.40;99.90
678;DHT22;321;48.814;9.132;2023-04-16T14:00:13;11.40;99.90
678;DHT22;321;48.814;9.132;2023-04-16T14:02:40;11.50;99.90
678;DHT22;321;48.814;9.132;2023-04-16T14:05:07;11.50;99.90
678;DHT22;321;48.814;9.132;2023-04-16T14:07:32;11.30;99.90
678;DHT22;321;48.814;9.132;2023-04-16T14:09:58;11.40;99.90
678;DHT22;321;48.814;9.132;2023-04-16T14:12:23;11.40;99.90
678;DHT22;321;48.814;9.132;2023-04-16T14:14:49;11.30;99.90
678;DHT22;321;48.814;9.132;2023-04-16T14:17:15;11.30;99.90
678;DHT22;321;48.814;9.132;2023-04-16T14:19:40;11.20;99.90
678;DHT22;321;48.814;9.132;2023-04-16T14:22:06;11.30;99.90
678;DHT22;321;48.814;9.132;2023-04-16T14:24:32;11.30;99.90
678;DHT22;321;48.814;9.132;2023-04-16T14:26:57;11.30;99.90
678;DHT22;321;48.814;9.132;2023-04-16T14:29:23;11.20;99.90
678;DHT22;321;48.814;9.132;2023-04-16T14:31:48;11.10;99.90
678;DHT22;321;48.814;9.132;2023-04-16T14:34:14;11.10;99.90
678;DHT22;321;48.814;9.132;2023-04-16T14:36:41;11.10;99.90
678;DHT22;321;48.814;9.132;2023-04-16T14:39:07;11.10;99.90
678;DHT22;321;48.814;9.132;2023-04-16T14:41:32;11.00;99.90
678;DHT22;321;48.814;9.132;2023-04-16T14:43:58;11.10;99.90
678;DHT22;321;48.814;9.132;2023-04-16T14:46:24;11.20;99.90
678;DHT22;321;48.814;9.132;2023-04-16T14:48:51;11.30;99.90
678;DHT22;321;48.814;9.132;2023-04-16T14:51:17;11.20;99.90
678;DHT22;321;48.814;9.132;2023-04-16T14:53:43;11.20;99.90
678;DHT22;321;48.814;9.132;2023-04-16T14:56:09;11.20;99.90
678;DHT22;321;48.814;9.132;2023-04-16T14:58:35;11.10;99.90
678;DHT22;321;48.814;9.132;2023-04-16T15:01:01;11.20;99.90
678;DHT22;321;48.814;9.132;2023-04-16T15:03:29;11.00;99.90
678;DHT22;321;48.814;9.132;2023-04-16T15:05:56;11.10;99.90
678;DHT22;321;48.814;9.132;2023-04-16T15:08:22;11.10;99.90
678;DHT22;321;48.814;9.132;2023-04-16T15:10:47;11.20;99.90
678;DHT22;321;48.814;9.132;2023-04-16T15:13:13;11.10;99.90
678;DHT22;321;48.814;9.132;2023-04-16T15:15:38;10.90;99.90
678;DHT22;321;48.814;9.132;2023-04-16T15:18:04;11.10;99.90
678;DHT22;321;48.814;9.132;2023-04-16T15:20:30;11.00;99.90
678;DHT22;321;48.814;9.132;2023-04-16T15:22:55;10.90;99.90
678;DHT22;321;48.814;9.132;2023-04-16T15:25:21;10.90;99.90
678;DHT22;321;48.814;9.132;2023-04-16T15:27:48;10.90;99.90
678;DHT22;321;48.814;9.132;2023-04-16T15:30:14;11.10;99.90
678;DHT22;321;48.814;9.132;2023-04-16T15:32:40;11.10;99.90
678;DHT22;321;48.814;9.132;2023-04-16T15:35:05;11.20;99.90
678;DHT22;321;48.814;9.132;2023-04-16T15:37:31;11.10;99.90
678;DHT22;321;48.814;9.132;2023-04-16T15:39:57;11.00;99.90
678;DHT22;321;48.814;9.132;2023-04-16T15:42:23;10.90;99.90
678;DHT22;321;48.814;9.132;2023-04-16T15:44:48;11.00;99.90
678;DHT22;321;48.814;9.132;2023-04-16T15:47:14;11.10;99.90
678;DHT22;321;48.814;9.132;2023-04-16T15:49:40;11.10;99.90
678;DHT22;321;48.814;9.132;2023-04-16T15:52:06;11.20;99.90
678;DHT22;321;48.814;9.132;2023-04-16T15:54:32;11.00;99.90
678;DHT22;321;48.814;9.132;2023-04-16T15:56:57;10.90;99.90
678;DHT22;321;48.814;9.132;2023-04-16T15:59:26;10.90;99.90
678;DHT22;321;48.814;9.132;2023-04-16T16:01:51;10.90;99.90
678;DHT22;321;48.814;9.132;2023-04-16T16:04:17;11.00;99.90
678;DHT22;321;48.814;9.132;2023-04-16T16:06:43;10.90;99.90
678;DHT22;321;48.814;9.132;2023-04-16T16:09:09;10.90;99.90
678;DHT22;321;48.814;9.132;2023-04-16T16:11:35;10.80;99.90
678;DHT22;321;48.814;9.132;2023-04-16T16:14:02;10.90;99.90
678;DHT22;321;48.814;9.132;2023-04-16T16:16:28;10.70;99.90
678;DHT22;321;48.814;9.132;2023-04-16T16:18:53;10.80;99.90
678;DHT22;321;48.814;9.132;2023-04-16T16:21:19;10.70;99.90
678;DHT22;321;48.814;9.132;2023-04-16T16:23:45;10.80;99.90
678;DHT22;321;48.814;9.132;2023-04-16T16:26:11;10.80;99.90
678;DHT22;321;48.814;9.132;2023-04-16T16:28:39;10.90;99.90
678;DHT22;321;48.814;9.132;2023-04-16T16:31:07;10.90;99.90
678;DHT22;321;48.814;9.132;2023-04-16T16:33:33;10.90;99.90
678;DHT22;321;48.814;9.132;2023-04-16T16:35:59;11.00;99.90
678;DHT22;321;48.814;9.132;2023-04-16T16:38:24;11.10;99.90
678;DHT22;321;48.814;9.132;2023-04-16T16:40:50;11.10;99.90
678;DHT22;321;48.814;9.132;2023-04-16T16:43:16;11.10;99.90
678;DHT22;321;48.814;9.132;2023-04-16T16:45:41;11.10;99.90
678;DHT22;321;48.814;9.132;2023-04-16T16:48:07;11.20;99.90
678;DHT22;321;48.814;9.132;2023-04-16T16:50:33;11.20;99.90
678;DHT22;321;48.814;9.132;2023-04-16T16:52:59;11.20;99.90
678;DHT22;321;48.814;9.132;2023-04-16T16:55:25;11.30;99.90
678;DHT22;321;48.814;9.132;2023-04-16T16:57:51;11.20;99.90